Time;durP1;ratioP1;P1;durP2;ratioP2;P2;SDS_P1;SDS_P2;PMS_P1;PMS_P2;Temp;Humidity;BMP_temperature;BMP_pressure;BME280_temperature;BME280_humidity;BME280_pressure;Samples;Min_cycle;Max_cycle;Signal;HPM_P1;HPM_P2
2021/03/25 00:00:10;;;;;;;10.75;6.10;;;;;;;2.21;100.00;96555.50;1023685;29;20070;-57
2021/03/25 00:00:41;;;;;;;12.07;7.05;;;;;;;2.22;100.00;96557.16;1031637;28;20014;-57
2021/03/25 00:01:14;;;;;;;11.80;6.63;;;;;;;2.24;100.00;96554.41;1023467;28;20061;-56
2021/03/25 00:01:45;;;;;;;12.68;6.72;;;;;;;2.19;100.00;96540.81;1031701;28;20144;-57
2021/03/25 00:02:16;;;;;;;11.18;6.63;;;;;;;2.24;100.00;96551.78;1027600;28;20023;-58
2021/03/25 00:02:47;;;;;;;11.93;7.18;;;;;;;2.22;100.00;96556.31;1031602;28;20022;-57
2021/03/25 00:03:18;;;;;;;11.80;6.57;;;;;;;2.21;100.00;96552.00;1031465;28;20069;-58
2021/03/25 00:03:49;;;;;;;11.27;6.55;;;;;;;2.18;100.00;96554.88;1027439;28;20081;-55
2021/03/25 00:04:21;;;;;;;11.88;6.95;;;;;;;2.20;100.00;96552.97;1015706;29;20016;-58
2021/03/25 00:04:52;;;;;;;10.55;6.57;;;;;;;2.20;100.00;96551.19;1027581;28;20026;-57
2021/03/25 00:05:27;;;;;;;13.95;7.15;;;;;;;2.19;100.00;96557.34;1035546;28;20075;-57
2021/03/25 00:05:58;;;;;;;9.13;5.95;;;;;;;2.19;100.00;96553.91;1031664;28;20166;-57
2021/03/25 00:06:29;;;;;;;11.38;6.00;;;;;;;2.18;100.00;96547.00;1031749;28;20464;-58
2021/03/25 00:07:00;;;;;;;13.13;6.55;;;;;;;2.19;100.00;96549.50;1031689;28;20011;-57
2021/03/25 00:07:31;;;;;;;9.32;5.90;;;;;;;2.19;100.00;96546.03;1031507;28;20114;-58
2021/03/25 00:08:05;;;;;;;11.73;5.82;;;;;;;2.17;100.00;96537.47;1031610;28;20059;-57
2021/03/25 00:08:38;;;;;;;9.55;5.82;;;;;;;2.20;100.00;96548.56;1027540;28;20106;-57
2021/03/25 00:09:20;;;;;;;10.05;6.13;;;;;;;2.21;100.00;96546.78;1028514;28;20087;-58
2021/03/25 00:09:50;;;;;;;12.15;5.68;;;;;;;2.22;100.00;96556.31;1031457;28;20423;-57
2021/03/25 00:10:26;;;;;;;11.25;6.68;;;;;;;2.23;100.00;96547.50;1027576;28;20022;-57
2021/03/25 00:10:57;;;;;;;11.57;6.70;;;;;;;2.20;100.00;96550.34;1023619;29;20046;-58
2021/03/25 00:11:28;;;;;;;13.75;6.18;;;;;;;2.20;100.00;96542.50;1023444;29;20041;-57
2021/03/25 00:11:59;;;;;;;10.95;5.97;;;;;;;2.17;100.00;96543.53;1031711;28;20045;-58
2021/03/25 00:12:29;;;;;;;13.18;6.53;;;;;;;2.14;100.00;96543.75;1031583;28;20424;-55
2021/03/25 00:13:00;;;;;;;9.15;5.75;;;;;;;2.14;100.00;96542.91;1023563;28;20093;-56
2021/03/25 00:13:31;;;;;;;13.38;6.20;;;;;;;2.12;100.00;96539.56;1031419;28;20015;-55
2021/03/25 00:14:02;;;;;;;11.77;6.50;;;;;;;2.10;100.00;96541.47;1027531;28;20023;-58
2021/03/25 00:14:33;;;;;;;13.52;6.45;;;;;;;2.12;100.00;96544.81;1023647;28;20400;-57
2021/03/25 00:15:06;;;;;;;12.45;6.53;;;;;;;2.17;100.00;96540.91;1027615;28;20022;-57
2021/03/25 00:15:37;;;;;;;9.38;6.00;;;;;;;2.17;100.00;96550.56;1027704;28;20393;-56
2021/03/25 00:16:08;;;;;;;10.10;5.88;;;;;;;2.17;100.00;96543.53;1027571;28;20018;-56
2021/03/25 00:16:39;;;;;;;10.48;6.03;;;;;;;2.16;100.00;96541.00;1027701;28;20022;-57
2021/03/25 00:17:10;;;;;;;9.90;5.35;;;;;;;2.14;100.00;96546.38;1031543;28;20042;-56
2021/03/25 00:17:41;;;;;;;10.80;6.20;;;;;;;2.13;100.00;96546.50;1027628;28;20416;-57
2021/03/25 00:18:12;;;;;;;12.38;6.13;;;;;;;2.14;100.00;96543.75;1027671;28;20077;-57
2021/03/25 00:18:43;;;;;;;10.20;6.00;;;;;;;2.15;100.00;96548.06;1031674;28;20114;-56
2021/03/25 00:19:14;;;;;;;12.85;6.57;;;;;;;2.02;100.00;96528.91;1019590;28;20019;-56
2021/03/25 00:19:45;;;;;;;10.02;5.90;;;;;;;2.07;100.00;96553.84;1027656;28;20094;-58
2021/03/25 00:20:15;;;;;;;12.10;6.82;;;;;;;2.08;100.00;96547.63;1027603;28;20015;-56
2021/03/25 00:20:46;;;;;;;11.77;5.95;;;;;;;2.09;100.00;96548.50;1032024;28;20015;-56
2021/03/25 00:21:17;;;;;;;12.13;6.05;;;;;;;2.08;100.00;96544.19;1028461;28;20038;-56
2021/03/25 00:21:48;;;;;;;10.77;6.20;;;;;;;2.07;100.00;96547.75;1032550;28;20030;-58
2021/03/25 00:22:18;;;;;;;12.57;5.88;;;;;;;2.06;100.00;96546.91;1028380;28;20177;-56
2021/03/25 00:22:49;;;;;;;9.95;6.05;;;;;;;2.05;100.00;96547.03;1032374;28;20048;-57
2021/03/25 00:23:20;;;;;;;9.80;5.78;;;;;;;2.06;100.00;96543.47;1024454;29;20027;-57
2021/03/25 00:23:51;;;;;;;9.73;5.47;;;;;;;2.06;100.00;96546.91;1032199;28;20033;-57
2021/03/25 00:24:21;;;;;;;8.68;5.65;;;;;;;2.05;100.00;96547.84;1028267;28;20015;-56
2021/03/25 00:24:52;;;;;;;11.90;6.30;;;;;;;2.04;100.00;96551.44;1020361;29;20043;-56
2021/03/25 00:25:26;;;;;;;10.50;5.90;;;;;;;2.05;100.00;96550.47;1032333;28;20544;-56
2021/03/25 00:25:57;;;;;;;14.68;5.90;;;;;;;2.03;100.00;96549.75;1032360;28;20026;-58
2021/03/25 00:26:28;;;;;;;9.23;5.65;;;;;;;2.03;100.00;96551.53;1024330;29;20061;-57
2021/03/25 00:26:58;;;;;;;10.35;5.43;;;;;;;2.02;100.00;96549.84;1028444;28;20029;-58
2021/03/25 00:27:29;;;;;;;9.15;5.72;;;;;;;2.03;100.00;96554.16;1032337;28;20101;-55
2021/03/25 00:28:00;;;;;;;10.32;5.80;;;;;;;2.08;100.00;96549.44;1036470;28;20549;-56
2021/03/25 00:28:31;;;;;;;8.63;5.45;;;;;;;2.05;100.00;96547.84;1036447;28;20543;-56
2021/03/25 00:29:02;;;;;;;10.80;6.28;;;;;;;2.07;100.00;96555.59;1028307;28;20022;-57
2021/03/25 00:29:34;;;;;;;9.70;5.82;;;;;;;2.07;100.00;96547.75;1028859;28;20010;-58
2021/03/25 00:30:06;;;;;;;8.93;5.57;;;;;;;2.06;100.00;96557.41;1036279;28;20036;-58
2021/03/25 00:30:37;;;;;;;10.50;5.32;;;;;;;2.07;100.00;96548.59;1028290;28;20161;-57
2021/03/25 00:31:07;;;;;;;9.88;5.78;;;;;;;2.06;100.00;96548.72;1032354;28;20027;-58
2021/03/25 00:31:39;;;;;;;10.40;5.68;;;;;;;2.06;100.00;96543.47;1028382;28;20101;-57
2021/03/25 00:32:10;;;;;;;10.00;5.65;;;;;;;2.06;100.00;96548.72;1016471;29;20510;-57
2021/03/25 00:32:41;;;;;;;10.07;5.28;;;;;;;2.04;100.00;96548.00;1028247;28;20019;-57
2021/03/25 00:33:13;;;;;;;9.65;5.22;;;;;;;2.06;100.00;96549.53;1028378;28;20165;-54
2021/03/25 00:33:44;;;;;;;9.75;5.47;;;;;;;2.03;100.00;96544.50;1020249;29;20439;-57
2021/03/25 00:34:15;;;;;;;12.00;6.22;;;;;;;2.02;100.00;96547.22;1036403;28;20069;-57
2021/03/25 00:34:46;;;;;;;9.98;5.45;;;;;;;1.98;100.00;96541.38;1032333;28;20026;-57
2021/03/25 00:35:17;;;;;;;9.02;5.28;;;;;;;1.96;100.00;96540.66;1024297;29;20113;-57
2021/03/25 00:35:48;;;;;;;9.02;5.50;;;;;;;1.96;100.00;96539.81;1032421;28;20076;-57
2021/03/25 00:36:20;;;;;;;9.40;5.28;;;;;;;1.99;100.00;96543.06;1024370;28;20034;-56
2021/03/25 00:36:51;;;;;;;14.32;6.30;;;;;;;1.93;100.00;96540.84;1024336;29;20033;-57
2021/03/25 00:37:22;;;;;;;9.73;4.97;;;;;;;1.94;100.00;96542.53;1028692;28;20015;-57
2021/03/25 00:37:53;;;;;;;8.50;5.60;;;;;;;1.94;100.00;96545.16;1034425;28;20018;-55
2021/03/25 00:38:23;;;;;;;9.98;5.45;;;;;;;1.97;100.00;96544.97;1034551;28;20014;-56
2021/03/25 00:38:54;;;;;;;8.88;5.15;;;;;;;1.91;100.00;96542.75;1026141;28;20023;-54
2021/03/25 00:39:25;;;;;;;9.88;4.95;;;;;;;1.91;100.00;96534.91;1034619;28;20106;-55
2021/03/25 00:39:55;;;;;;;10.50;5.97;;;;;;;1.93;100.00;96538.25;1030537;28;20050;-55
2021/03/25 00:40:26;;;;;;;10.43;5.68;;;;;;;1.94;100.00;96533.88;1034587;28;20076;-55
2021/03/25 00:40:57;;;;;;;9.82;5.70;;;;;;;1.95;100.00;96546.00;1026974;28;20019;-55
2021/03/25 00:41:28;;;;;;;8.40;5.13;;;;;;;1.89;100.00;96540.25;1030514;28;20023;-57
2021/03/25 00:41:58;;;;;;;12.50;5.53;;;;;;;1.91;100.00;96547.16;1026805;29;20023;-55
2021/03/25 00:42:29;;;;;;;9.63;6.25;;;;;;;1.91;100.00;96544.53;1034894;28;20018;-55
2021/03/25 00:43:00;;;;;;;8.98;5.30;;;;;;;1.89;100.00;96540.25;1026859;28;20019;-56
2021/03/25 00:43:31;;;;;;;9.10;5.38;;;;;;;1.89;100.00;96544.66;1026981;28;20023;-57
2021/03/25 00:44:05;;;;;;;9.00;5.75;;;;;;;1.85;100.00;96536.19;1028667;28;20105;-56
2021/03/25 00:44:35;;;;;;;9.10;5.25;;;;;;;1.85;100.00;96543.19;1028267;28;20428;-57
2021/03/25 00:45:11;;;;;;;8.40;4.80;;;;;;;1.85;100.00;96535.34;1032088;28;20026;-57
2021/03/25 00:45:44;;;;;;;9.18;5.07;;;;;;;1.82;100.00;96535.56;1032360;28;20018;-56
2021/03/25 00:46:15;;;;;;;11.73;5.90;;;;;;;1.79;100.00;96536.59;1032482;28;20018;-57
2021/03/25 00:46:45;;;;;;;10.27;5.65;;;;;;;1.77;100.00;96533.25;1028320;28;20432;-58
2021/03/25 00:47:17;;;;;;;10.15;5.72;;;;;;;1.75;100.00;96536.94;1028268;28;20027;-57
2021/03/25 00:47:47;;;;;;;12.23;5.50;;;;;;;1.76;100.00;96526.34;1024300;28;20015;-57
2021/03/25 00:48:19;;;;;;;10.90;5.32;;;;;;;1.69;100.00;96523.31;1032327;28;20050;-55
2021/03/25 00:48:50;;;;;;;9.02;5.38;;;;;;;1.73;100.00;96539.66;1024276;28;20405;-57
2021/03/25 00:49:22;;;;;;;10.70;5.75;;;;;;;1.74;100.00;96533.44;1028149;28;20030;-57
2021/03/25 00:49:53;;;;;;;10.75;6.10;;;;;;;1.72;100.00;96532.72;1032372;28;20018;-58
2021/03/25 00:50:30;;;;;;;10.23;5.95;;;;;;;1.72;100.00;96531.91;1032385;28;20448;-57
2021/03/25 00:51:01;;;;;;;11.63;6.35;;;;;;;1.70;100.00;96535.44;1032387;28;20364;-57
2021/03/25 00:51:32;;;;;;;11.38;5.68;;;;;;;1.71;100.00;96528.44;1028221;28;20019;-56
2021/03/25 00:52:03;;;;;;;11.02;6.20;;;;;;;1.70;100.00;96534.63;1024339;28;20021;-58
2021/03/25 00:52:34;;;;;;;9.98;5.65;;;;;;;1.67;100.00;96530.44;1032270;28;20041;-57
2021/03/25 00:53:06;;;;;;;11.80;6.28;;;;;;;1.63;100.00;96534.19;1028186;28;20007;-58
2021/03/25 00:53:37;;;;;;;10.38;5.70;;;;;;;1.66;100.00;96533.16;1028508;28;20031;-55
2021/03/25 00:54:08;;;;;;;8.48;5.45;;;;;;;1.61;100.00;96543.94;1027906;28;20074;-56
2021/03/25 00:54:39;;;;;;;10.75;5.57;;;;;;;1.60;100.00;96534.44;1032253;28;20019;-58
2021/03/25 00:55:11;;;;;;;8.93;5.32;;;;;;;1.57;100.00;96537.25;1032286;28;20036;-57
2021/03/25 00:55:41;;;;;;;9.77;5.70;;;;;;;1.56;100.00;96532.13;1024232;28;20024;-57
2021/03/25 00:56:12;;;;;;;9.07;5.70;;;;;;;1.57;100.00;96526.78;1032330;28;20014;-57
2021/03/25 00:56:43;;;;;;;10.57;5.53;;;;;;;1.58;100.00;96527.63;1028211;28;20078;-57
2021/03/25 00:57:14;;;;;;;9.85;5.28;;;;;;;1.57;100.00;96532.03;1032120;28;20010;-56
2021/03/25 00:57:44;;;;;;;9.27;5.47;;;;;;;1.57;100.00;96529.41;1032175;28;20496;-58
2021/03/25 00:58:15;;;;;;;9.02;5.15;;;;;;;1.61;100.00;96524.78;1028284;28;20034;-54
2021/03/25 00:58:46;;;;;;;12.25;5.65;;;;;;;1.60;100.00;96529.19;1032278;28;20412;-57
2021/03/25 00:59:17;;;;;;;9.23;5.30;;;;;;;1.62;100.00;96527.31;1032119;28;20011;-55
2021/03/25 00:59:47;;;;;;;8.30;5.53;;;;;;;1.63;100.00;96528.97;1040288;28;20041;-57
2021/03/25 01:00:23;;;;;;;10.32;5.82;;;;;;;1.62;100.00;96532.53;1028331;28;20010;-56
2021/03/25 01:00:54;;;;;;;9.38;5.97;;;;;;;1.62;100.00;96529.94;1020352;29;20020;-56
2021/03/25 01:01:25;;;;;;;9.20;5.05;;;;;;;1.65;100.00;96528.88;1032078;28;20018;-57
2021/03/25 01:01:56;;;;;;;8.65;4.90;;;;;;;1.63;100.00;96528.97;1024172;29;20030;-57
2021/03/25 01:02:27;;;;;;;8.20;4.97;;;;;;;1.58;100.00;96519.75;1035868;28;20064;-57
2021/03/25 01:02:57;;;;;;;8.93;5.82;;;;;;;1.60;100.00;96525.72;1020248;29;20020;-57
2021/03/25 01:03:28;;;;;;;7.82;5.07;;;;;;;1.58;100.00;96525.81;1028117;28;20007;-56
2021/03/25 01:03:59;;;;;;;11.35;5.55;;;;;;;1.59;100.00;96527.53;1024058;28;20043;-58
2021/03/25 01:04:30;;;;;;;9.60;5.53;;;;;;;1.56;100.00;96525.09;1028187;28;20038;-56
2021/03/25 01:05:01;;;;;;;7.95;4.78;;;;;;;1.58;100.00;96531.06;1032315;28;20027;-56
2021/03/25 01:05:31;;;;;;;8.50;5.43;;;;;;;1.60;100.00;96529.19;1028176;28;20529;-56
2021/03/25 01:06:02;;;;;;;8.63;5.15;;;;;;;1.56;100.00;96526.91;1028181;28;20019;-57
2021/03/25 01:06:33;;;;;;;8.02;5.22;;;;;;;1.55;100.00;96527.81;1024102;28;20016;-58
2021/03/25 01:07:04;;;;;;;10.10;5.07;;;;;;;1.57;100.00;96531.16;1024195;28;20038;-57
2021/03/25 01:07:35;;;;;;;8.55;5.13;;;;;;;1.57;100.00;96528.56;1028266;28;20019;-57
2021/03/25 01:08:06;;;;;;;11.68;5.65;;;;;;;1.54;100.00;96534.03;1028370;28;20035;-57
2021/03/25 01:08:37;;;;;;;8.82;5.90;;;;;;;1.52;100.00;96534.13;1028207;28;20018;-56
2021/03/25 01:09:11;;;;;;;8.75;5.60;;;;;;;1.49;100.00;96532.53;1032152;28;20049;-57
2021/03/25 01:09:42;;;;;;;9.82;5.47;;;;;;;1.52;100.00;96531.50;1024185;29;20012;-57
2021/03/25 01:10:25;;;;;;;8.63;5.20;;;;;;;1.52;100.00;96526.28;1024314;29;20024;-58
2021/03/25 01:11:00;;;;;;;7.15;4.70;;;;;;;1.49;100.00;96535.16;1024297;29;20429;-57
2021/03/25 01:11:30;;;;;;;9.68;5.78;;;;;;;1.50;100.00;96531.59;1024373;29;20491;-56
2021/03/25 01:12:01;;;;;;;9.75;5.15;;;;;;;1.45;100.00;96532.88;1032283;28;20033;-57
2021/03/25 01:12:35;;;;;;;13.40;5.65;;;;;;;1.45;100.00;96535.50;1028183;28;20022;-58
2021/03/25 01:13:10;;;;;;;10.30;5.68;;;;;;;1.45;100.00;96530.25;1028144;28;20023;-56
2021/03/25 01:13:43;;;;;;;10.60;4.95;;;;;;;1.44;100.00;96531.19;1027990;28;20021;-56
2021/03/25 01:14:14;;;;;;;9.15;5.55;;;;;;;1.45;100.00;96532.88;1032250;28;20116;-57
2021/03/25 01:14:45;;;;;;;9.52;5.38;;;;;;;1.46;100.00;96530.16;1028182;28;20541;-56
2021/03/25 01:15:16;;;;;;;9.13;5.18;;;;;;;1.48;100.00;96530.03;1028839;28;20098;-57
2021/03/25 01:15:47;;;;;;;9.13;5.13;;;;;;;1.50;100.00;96530.78;1020192;29;20490;-56
2021/03/25 01:16:30;;;;;;;8.43;4.97;;;;;;;1.49;100.00;96527.31;1032264;28;20022;-58
2021/03/25 01:17:02;;;;;;;8.35;5.32;;;;;;;1.50;100.00;96529.00;1036224;28;20021;-57
2021/03/25 01:17:33;;;;;;;9.20;4.85;;;;;;;1.48;100.00;96528.25;1032231;28;20022;-57
2021/03/25 01:18:05;;;;;;;8.57;5.68;;;;;;;1.47;100.00;96523.13;1024319;28;20023;-57
2021/03/25 01:18:36;;;;;;;12.00;5.32;;;;;;;1.45;100.00;96527.63;1032100;28;20053;-57
2021/03/25 01:19:18;;;;;;;11.35;5.28;;;;;;;1.42;100.00;96530.47;1028118;28;20037;-57
2021/03/25 01:19:49;;;;;;;12.52;5.47;;;;;;;1.40;100.00;96527.13;1028207;28;20035;-56
2021/03/25 01:20:24;;;;;;;8.95;4.85;;;;;;;1.38;100.00;96535.06;1032225;28;20502;-57
2021/03/25 01:20:56;;;;;;;9.38;5.38;;;;;;;1.40;100.00;96537.59;1028093;28;20022;-56
2021/03/25 01:21:27;;;;;;;10.50;5.25;;;;;;;1.36;100.00;96530.84;1028262;28;20500;-57
2021/03/25 01:21:59;;;;;;;10.60;5.47;;;;;;;1.37;100.00;96533.38;1031235;28;20083;-58
2021/03/25 01:22:30;;;;;;;9.38;5.13;;;;;;;1.37;100.00;96528.16;1032177;28;20022;-56
2021/03/25 01:23:01;;;;;;;8.75;4.90;;;;;;;1.37;100.00;96530.75;1028046;28;20027;-56
2021/03/25 01:23:32;;;;;;;7.78;5.00;;;;;;;1.37;100.00;96533.38;1024081;28;20055;-56
2021/03/25 01:24:04;;;;;;;8.68;4.97;;;;;;;1.31;100.00;96521.56;1028111;28;20516;-57
2021/03/25 01:24:34;;;;;;;10.65;5.22;;;;;;;1.36;100.00;96530.84;1032163;28;20018;-57
2021/03/25 01:25:06;;;;;;;9.45;5.28;;;;;;;1.34;100.00;96525.72;1032128;28;20403;-57
2021/03/25 01:25:37;;;;;;;9.05;5.47;;;;;;;1.33;100.00;96531.91;1024213;28;20050;-55
2021/03/25 01:26:08;;;;;;;9.38;4.93;;;;;;;1.27;100.00;96525.34;1032207;28;20026;-58
2021/03/25 01:26:39;;;;;;;9.30;5.97;;;;;;;1.27;100.00;96521.84;1036186;28;20068;-55
2021/03/25 01:27:10;;;;;;;7.93;5.18;;;;;;;1.31;100.00;96524.19;1027990;28;20023;-57
2021/03/25 01:27:40;;;;;;;9.13;5.53;;;;;;;1.32;100.00;96517.16;1020186;29;20395;-57
2021/03/25 01:28:13;;;;;;;9.07;5.28;;;;;;;1.33;100.00;96523.25;1036257;28;20022;-57
2021/03/25 01:28:43;;;;;;;10.40;5.40;;;;;;;1.31;100.00;96524.19;1028162;28;20106;-56
2021/03/25 01:29:15;;;;;;;9.27;5.57;;;;;;;1.31;100.00;96524.19;1023901;28;20027;-57
2021/03/25 01:29:46;;;;;;;10.95;5.03;;;;;;;1.31;100.00;96521.56;1032141;28;20395;-56
2021/03/25 01:30:18;;;;;;;8.50;4.93;;;;;;;1.32;100.00;96525.00;1027947;28;20405;-57
2021/03/25 01:30:49;;;;;;;8.73;5.53;;;;;;;1.31;100.00;96526.78;1028081;28;20089;-57
2021/03/25 01:31:21;;;;;;;9.40;4.95;;;;;;;1.30;100.00;96525.09;1023849;28;20255;-57
2021/03/25 01:31:52;;;;;;;7.25;4.85;;;;;;;1.31;100.00;96523.34;1023911;28;20540;-58
2021/03/25 01:32:23;;;;;;;9.25;5.75;;;;;;;1.31;100.00;96532.03;1028067;28;20089;-58
2021/03/25 01:32:54;;;;;;;8.13;4.88;;;;;;;1.29;100.00;96527.84;1024065;28;20508;-57
2021/03/25 01:33:25;;;;;;;9.18;5.15;;;;;;;1.27;100.00;96517.50;1024008;28;20020;-57
2021/03/25 01:33:56;;;;;;;10.13;4.85;;;;;;;1.28;100.00;96523.53;1027944;28;20117;-57
2021/03/25 01:34:26;;;;;;;8.98;5.97;;;;;;;1.28;100.00;96518.31;1028096;28;20022;-55
2021/03/25 01:34:57;;;;;;;10.50;5.10;;;;;;;1.26;100.00;96528.88;1028063;28;20559;-58
2021/03/25 01:35:28;;;;;;;9.30;5.28;;;;;;;1.20;100.00;96511.00;1032045;28;20052;-56
2021/03/25 01:35:59;;;;;;;13.15;6.10;;;;;;;1.30;100.00;96521.66;1024088;29;20421;-57
2021/03/25 01:36:29;;;;;;;8.05;5.05;;;;;;;1.26;100.00;96518.41;1020194;29;20020;-55
2021/03/25 01:37:00;;;;;;;8.55;4.88;;;;;;;1.27;100.00;96522.72;1027999;28;20031;-57
2021/03/25 01:37:31;;;;;;;9.48;5.25;;;;;;;1.27;100.00;96514.88;1024062;28;20019;-57
2021/03/25 01:38:03;;;;;;;8.57;5.03;;;;;;;1.27;100.00;96517.50;1020192;29;20040;-56
2021/03/25 01:38:34;;;;;;;11.90;4.70;;;;;;;1.27;100.00;96511.41;1028063;28;20173;-57
2021/03/25 01:39:05;;;;;;;7.05;4.70;;;;;;;1.27;100.00;96514.00;1024054;29;20126;-56
2021/03/25 01:39:36;;;;;;;7.25;4.95;;;;;;;1.27;100.00;96507.03;1024042;28;20358;-57
2021/03/25 01:40:17;;;;;;;8.38;5.35;;;;;;;1.26;100.00;96513.19;1032112;28;20029;-57
2021/03/25 01:40:51;;;;;;;10.00;5.43;;;;;;;1.25;100.00;96508.06;1032003;28;20018;-57
2021/03/25 01:41:26;;;;;;;10.65;4.88;;;;;;;1.26;100.00;96514.97;1028109;28;20105;-56
2021/03/25 01:41:57;;;;;;;10.52;5.28;;;;;;;1.26;100.00;96510.56;1027954;28;20058;-57
2021/03/25 01:42:29;;;;;;;12.63;5.63;;;;;;;1.25;100.00;96513.28;1024050;28;20027;-55
2021/03/25 01:43:11;;;;;;;8.90;5.15;;;;;;;1.23;100.00;96513.38;1028130;28;20035;-56
2021/03/25 01:43:43;;;;;;;8.73;5.30;;;;;;;1.24;100.00;96511.63;1027964;28;20023;-58
2021/03/25 01:44:33;;;;;;;9.57;5.15;;;;;;;1.26;100.00;96509.75;1026154;28;20122;-58
2021/03/25 01:45:23;;;;;;;10.73;4.93;;;;;;;1.24;100.00;96509.00;1032001;28;20065;-57
2021/03/25 01:45:56;;;;;;;;;;;;;;;1.22;100.00;96503.88;1030909;28;20050;-57
2021/03/25 01:46:28;;;;;;;8.20;4.53;;;;;;;1.21;100.00;96512.66;1032112;28;20180;-57
2021/03/25 01:46:59;;;;;;;8.18;4.80;;;;;;;1.19;100.00;96504.09;1028131;28;20026;-57
2021/03/25 01:47:30;;;;;;;9.70;5.10;;;;;;;1.19;100.00;96508.47;1040200;28;20021;-55
2021/03/25 01:48:01;;;;;;;8.70;4.85;;;;;;;1.19;100.00;96504.09;1031949;28;20102;-57
2021/03/25 01:48:35;;;;;;;8.35;4.90;;;;;;;1.17;100.00;96505.97;1028174;28;20018;-56
2021/03/25 01:49:09;;;;;;;10.88;5.00;;;;;;;1.15;100.00;96505.25;1024029;28;20023;-57
2021/03/25 01:49:40;;;;;;;10.82;5.43;;;;;;;1.15;100.00;96500.00;1024041;28;20114;-56
2021/03/25 01:50:10;;;;;;;8.63;5.05;;;;;;;1.14;100.00;96506.16;1023968;29;20023;-57
2021/03/25 01:50:41;;;;;;;7.63;4.65;;;;;;;1.13;100.00;96507.97;1028128;28;20069;-58
2021/03/25 01:51:27;;;;;;;9.23;5.68;;;;;;;1.11;100.00;96504.59;1024059;29;20048;-57
2021/03/25 01:52:07;;;;;;;11.35;5.53;;;;;;;1.11;100.00;96503.75;1024044;29;20134;-58
2021/03/25 01:52:44;;;;;;;8.73;5.18;;;;;;;1.07;100.00;96500.50;1035999;28;20021;-57
2021/03/25 01:53:25;;;;;;;10.05;5.38;;;;;;;1.07;100.00;96499.69;1028023;28;20019;-56
2021/03/25 01:54:16;;;;;;;9.48;5.03;;;;;;;1.08;100.00;96490.88;1031905;28;20022;-57
2021/03/25 01:55:06;;;;;;;8.93;5.00;;;;;;;1.06;100.00;96496.25;1036036;28;20538;-57
2021/03/25 01:55:42;;;;;;;8.85;4.47;;;;;;;1.04;100.00;96492.03;1030762;28;20018;-56
2021/03/25 01:56:23;;;;;;;7.55;4.60;;;;;;;1.02;100.00;96496.53;1027946;28;20511;-57
2021/03/25 01:57:13;;;;;;;8.13;4.97;;;;;;;1.04;100.00;96498.09;1036033;28;20108;-57
2021/03/25 01:58:03;;;;;;;8.15;4.60;;;;;;;1.06;100.00;96496.25;1024040;28;20022;-57
2021/03/25 01:58:44;;;;;;;8.55;4.70;;;;;;;1.06;100.00;96498.00;1023900;28;20015;-54
2021/03/25 01:59:26;;;;;;;8.30;4.97;;;;;;;1.05;100.00;96496.34;1029602;28;20501;-57
2021/03/25 02:00:01;;;;;;;11.27;5.15;;;;;;;1.04;100.00;96494.66;1036212;28;20014;-57
2021/03/25 02:00:41;;;;;;;8.20;4.32;;;;;;;1.03;100.00;96498.19;1035547;28;20395;-58
2021/03/25 02:01:26;;;;;;;7.28;4.43;;;;;;;1.02;100.00;96494.75;1024630;28;20043;-56
2021/03/25 02:02:10;;;;;;;8.05;4.47;;;;;;;1.03;100.00;96492.97;1024038;29;20041;-57
2021/03/25 02:02:54;;;;;;;7.07;4.38;;;;;;;1.05;100.00;96493.72;1023828;28;20111;-57
2021/03/25 02:03:44;;;;;;;6.70;4.07;;;;;;;1.03;100.00;96488.59;1032037;28;20105;-57
2021/03/25 02:04:36;;;;;;;8.43;4.82;;;;;;;1.01;100.00;96487.00;1036090;28;20021;-56
2021/03/25 02:05:10;;;;;;;7.55;4.68;;;;;;;0.99;100.00;96492.34;1022408;28;20102;-56
2021/03/25 02:05:53;;;;;;;8.75;4.32;;;;;;;1.05;100.00;96491.13;1019959;28;20062;-56
2021/03/25 02:06:38;;;;;;;8.32;4.55;;;;;;;0.98;100.00;96489.84;1031990;28;20113;-57
2021/03/25 02:07:22;;;;;;;7.55;4.07;;;;;;;0.98;100.00;96493.28;1036079;28;20415;-57
2021/03/25 02:08:12;;;;;;;8.80;4.85;;;;;;;0.93;100.00;96498.00;1028016;28;20042;-57
2021/03/25 02:09:00;;;;;;;7.75;4.10;;;;;;;0.96;100.00;96494.31;1032306;28;20014;-57
2021/03/25 02:09:43;;;;;;;7.97;4.10;;;;;;;0.96;100.00;96491.72;1027028;28;20058;-58
2021/03/25 02:10:34;;;;;;;7.93;3.95;;;;;;;0.97;100.00;96493.41;1020174;28;20046;-56
2021/03/25 02:11:24;;;;;;;7.43;4.45;;;;;;;0.92;100.00;96497.16;1024416;28;20073;-57
2021/03/25 02:12:02;;;;;;;9.40;4.47;;;;;;;0.92;100.00;96496.31;1029254;28;20018;-58
2021/03/25 02:12:53;;;;;;;7.75;4.30;;;;;;;0.91;100.00;96494.66;1027936;28;20082;-57
2021/03/25 02:13:42;;;;;;;10.50;4.43;;;;;;;0.91;100.00;96495.47;1032031;28;20298;-56
2021/03/25 02:14:34;;;;;;;7.88;4.00;;;;;;;0.90;100.00;96492.97;1036099;28;20064;-57
2021/03/25 02:15:24;;;;;;;8.48;4.50;;;;;;;0.89;100.00;96494.75;1037432;28;20033;-56
2021/03/25 02:16:06;;;;;;;9.05;4.22;;;;;;;0.87;100.00;96494.03;1034530;28;20124;-57
2021/03/25 02:16:40;;;;;;;8.27;4.38;;;;;;;0.87;100.00;96490.53;1025830;28;20038;-57
2021/03/25 02:17:14;;;;;;;8.15;4.80;;;;;;;0.87;100.00;96494.03;1023777;28;20030;-57
2021/03/25 02:17:47;;;;;;;8.90;3.72;;;;;;;0.87;100.00;96494.03;1019990;28;20083;-56
2021/03/25 02:18:32;;;;;;;8.15;4.68;;;;;;;0.86;100.00;96489.72;1028011;28;20027;-56
2021/03/25 02:19:14;;;;;;;9.45;4.47;;;;;;;0.84;100.00;96494.22;1031731;28;20519;-57
2021/03/25 02:19:58;;;;;;;7.50;3.85;;;;;;;0.84;100.00;96490.78;1027994;28;20015;-57
2021/03/25 02:20:40;;;;;;;6.32;4.00;;;;;;;0.82;100.00;96490.88;1027955;28;20029;-55
2021/03/25 02:21:19;;;;;;;8.80;3.97;;;;;;;0.82;100.00;96490.88;1027867;28;20022;-57
2021/03/25 02:22:01;;;;;;;7.50;4.45;;;;;;;0.81;100.00;96486.56;1032128;28;20029;-56
2021/03/25 02:22:48;;;;;;;7.15;4.13;;;;;;;0.79;100.00;96488.47;1036142;28;20029;-57
2021/03/25 02:23:32;;;;;;;7.07;3.85;;;;;;;0.75;100.00;96482.59;1027847;28;20046;-57
2021/03/25 02:24:04;;;;;;;8.30;3.75;;;;;;;0.79;100.00;96485.84;1027874;28;20063;-58
2021/03/25 02:24:50;;;;;;;8.02;3.95;;;;;;;0.81;100.00;96483.13;1024069;28;20539;-57
2021/03/25 02:25:24;;;;;;;8.60;4.05;;;;;;;0.78;100.00;96481.53;1027925;28;20473;-58
2021/03/25 02:25:59;;;;;;;7.60;4.00;;;;;;;0.77;100.00;96485.13;1022585;29;20065;-57
2021/03/25 02:26:41;;;;;;;7.00;3.60;;;;;;;0.78;100.00;96484.16;1020087;29;20370;-56
2021/03/25 02:27:22;;;;;;;7.40;3.88;;;;;;;0.77;100.00;96479.03;1027910;28;20026;-57
2021/03/25 02:28:06;;;;;;;6.68;3.70;;;;;;;0.75;100.00;96479.97;1031558;28;20041;-57
2021/03/25 02:28:56;;;;;;;7.38;3.97;;;;;;;0.76;100.00;96480.81;1032278;28;20065;-56
2021/03/25 02:29:47;;;;;;;7.22;4.03;;;;;;;0.72;100.00;96481.97;1036406;28;20419;-58
2021/03/25 02:30:20;;;;;;;6.70;3.55;;;;;;;0.75;100.00;96484.38;1037288;28;20040;-56
2021/03/25 02:31:08;;;;;;;8.35;4.20;;;;;;;0.74;100.00;96480.91;1027847;28;20035;-57
2021/03/25 02:31:41;;;;;;;7.05;3.47;;;;;;;0.75;100.00;96484.38;1027847;28;20373;-57
2021/03/25 02:32:16;;;;;;;8.13;4.18;;;;;;;0.71;100.00;96482.91;1027910;28;20488;-57
2021/03/25 02:32:51;;;;;;;6.60;3.88;;;;;;;0.74;100.00;96482.69;1027867;28;20062;-55
2021/03/25 02:33:21;;;;;;;8.30;4.15;;;;;;;0.73;100.00;96487.09;1027994;28;20023;-57
2021/03/25 02:33:54;;;;;;;7.57;3.95;;;;;;;0.65;100.00;96467.63;1031571;28;20515;-56
2021/03/25 02:34:28;;;;;;;7.25;3.80;;;;;;;0.73;100.00;96488.84;1023999;29;20039;-56
2021/03/25 02:35:05;;;;;;;9.68;3.85;;;;;;;0.73;100.00;96488.84;1027778;28;20101;-58
2021/03/25 02:35:40;;;;;;;7.75;3.85;;;;;;;0.71;100.00;96491.56;1032026;28;20022;-57
2021/03/25 02:36:11;;;;;;;6.00;3.60;;;;;;;0.71;100.00;96485.50;1027791;28;20022;-56
2021/03/25 02:36:47;;;;;;;6.53;3.60;;;;;;;0.72;100.00;96479.34;1027889;28;20066;-56
2021/03/25 02:37:30;;;;;;;7.95;4.07;;;;;;;0.71;100.00;96483.72;1023886;29;20046;-57
2021/03/25 02:38:12;;;;;;;5.95;3.42;;;;;;;0.70;100.00;96491.69;1031670;28;20027;-57
2021/03/25 02:38:47;;;;;;;6.43;3.70;;;;;;;0.69;100.00;96483.00;1032014;28;20044;-57
2021/03/25 02:39:23;;;;;;;7.97;3.80;;;;;;;0.71;100.00;96482.91;1027827;28;20023;-56
2021/03/25 02:39:58;;;;;;;7.00;4.07;;;;;;;0.69;100.00;96480.38;1027883;28;20026;-55
2021/03/25 02:40:40;;;;;;;6.57;3.47;;;;;;;0.69;100.00;96487.38;1031968;28;20034;-56
2021/03/25 02:41:15;;;;;;;7.82;4.05;;;;;;;0.68;100.00;96483.09;1023953;28;20490;-55